Time;durP1;ratioP1;P1;durP2;ratioP2;P2;SDS_P1;SDS_P2;PMS_P1;PMS_P2;Temp;Humidity;BMP_temperature;BMP_pressure;BME280_temperature;BME280_humidity;BME280_pressure;Samples;Min_cycle;Max_cycle;Signal;HPM_P1;HPM_P2
2021/04/18 00:02:23;;;;;;;5.38;2.30;;;6.40;69.40;;;;;;5075496;28;20036;-70
2021/04/18 00:04:48;;;;;;;5.63;2.47;;;6.40;69.50;;;;;;5074067;28;20028;-70
2021/04/18 00:07:14;;;;;;;7.65;3.58;;;6.30;69.70;;;;;;5074032;28;20428;-71
2021/04/18 00:09:40;;;;;;;11.02;3.45;;;6.30;69.90;;;;;;5073926;28;20027;-70
2021/04/18 00:12:07;;;;;;;8.30;3.60;;;6.30;70.10;;;;;;5075123;28;20025;-70
2021/04/18 00:14:33;;;;;;;6.30;2.60;;;6.20;70.10;;;;;;5073631;28;20435;-70
2021/04/18 00:16:58;;;;;;;8.88;3.05;;;6.20;70.30;;;;;;5074812;28;20056;-71
2021/04/18 00:19:24;;;;;;;5.45;2.33;;;6.20;70.70;;;;;;5074822;28;20024;-70
2021/04/18 00:21:50;;;;;;;4.38;2.50;;;6.10;70.70;;;;;;5073323;28;20040;-70
2021/04/18 00:24:15;;;;;;;4.70;2.40;;;6.10;70.80;;;;;;5073815;28;20028;-70
2021/04/18 00:26:41;;;;;;;6.13;2.45;;;6.10;70.80;;;;;;5075177;28;20424;-70
2021/04/18 00:29:07;;;;;;;4.82;2.35;;;6.10;71.00;;;;;;5074958;28;20115;-70
2021/04/18 00:31:32;;;;;;;6.22;2.50;;;6.10;71.10;;;;;;5073148;28;20479;-70
2021/04/18 00:33:59;;;;;;;10.75;2.78;;;6.00;71.10;;;;;;5073108;28;20059;-70
2021/04/18 00:36:25;;;;;;;6.53;2.90;;;6.10;71.10;;;;;;5072798;28;20041;-70
2021/04/18 00:38:50;;;;;;;4.00;2.58;;;6.10;71.10;;;;;;5074352;28;20020;-70
2021/04/18 00:41:16;;;;;;;8.05;2.70;;;6.20;71.20;;;;;;5073091;28;20078;-69
2021/04/18 00:43:45;;;;;;;6.95;2.63;;;6.30;71.20;;;;;;5074386;28;20032;-70
2021/04/18 00:46:12;;;;;;;5.25;2.50;;;6.40;71.30;;;;;;5072862;28;20483;-70
2021/04/18 00:48:44;;;;;;;8.23;2.70;;;6.40;71.10;;;;;;5074457;28;20028;-70
2021/04/18 00:51:14;;;;;;;5.20;2.58;;;6.50;71.10;;;;;;5074145;28;20037;-69
2021/04/18 00:53:40;;;;;;;6.65;2.80;;;6.60;71.00;;;;;;5074184;28;20500;-70
2021/04/18 00:56:07;;;;;;;5.28;2.55;;;6.60;70.90;;;;;;5074349;28;20052;-70
2021/04/18 00:58:36;;;;;;;7.22;2.95;;;6.70;70.90;;;;;;5073110;28;20028;-70
2021/04/18 01:01:04;;;;;;;6.28;2.80;;;6.70;71.00;;;;;;5072127;28;20128;-70
2021/04/18 01:03:29;;;;;;;7.10;2.85;;;6.70;71.00;;;;;;5072604;28;20032;-70
2021/04/18 01:05:55;;;;;;;7.63;2.65;;;6.70;71.10;;;;;;5072459;28;20468;-69
2021/04/18 01:08:20;;;;;;;5.97;3.00;;;6.70;71.10;;;;;;5074001;28;20378;-70
2021/04/18 01:10:46;;;;;;;8.02;2.60;;;6.70;71.20;;;;;;5072186;28;20032;-70
2021/04/18 01:13:12;;;;;;;5.78;2.80;;;6.70;71.20;;;;;;5073694;28;20047;-70
2021/04/18 01:15:38;;;;;;;7.28;2.67;;;6.60;71.20;;;;;;5073601;28;20042;-70
2021/04/18 01:18:03;;;;;;;6.80;2.63;;;6.60;71.30;;;;;;5073995;28;20541;-69
2021/04/18 01:20:29;;;;;;;5.20;2.80;;;6.60;71.40;;;;;;5073696;28;20052;-69
2021/04/18 01:22:55;;;;;;;6.68;2.80;;;6.50;71.40;;;;;;5072155;28;20054;-70
2021/04/18 01:25:25;;;;;;;5.85;2.50;;;6.50;71.40;;;;;;5073495;28;20028;-69
2021/04/18 01:27:50;;;;;;;7.68;2.67;;;6.60;71.50;;;;;;5072056;28;20024;-70
2021/04/18 01:30:24;;;;;;;6.82;2.65;;;6.60;71.40;;;;;;5071950;28;20446;-69
2021/04/18 01:32:52;;;;;;;8.30;3.08;;;6.60;71.40;;;;;;5073217;28;20024;-70
2021/04/18 01:35:19;;;;;;;5.40;2.50;;;6.60;71.40;;;;;;5071865;28;20047;-70
2021/04/18 01:37:45;;;;;;;5.65;2.80;;;6.70;71.80;;;;;;5071519;28;20082;-70
2021/04/18 01:40:16;;;;;;;6.65;3.15;;;6.60;71.40;;;;;;5071712;28;20223;-69
2021/04/18 01:42:43;;;;;;;6.53;3.03;;;6.60;71.40;;;;;;5072413;28;20133;-69
2021/04/18 01:45:10;;;;;;;6.35;2.63;;;6.60;71.50;;;;;;5071697;28;20390;-70
2021/04/18 01:47:37;;;;;;;4.50;2.72;;;6.60;71.60;;;;;;5071515;28;20382;-70
2021/04/18 01:50:05;;;;;;;6.18;2.95;;;6.60;71.50;;;;;;5071806;28;20114;-70
2021/04/18 01:52:31;;;;;;;7.20;3.10;;;6.60;71.40;;;;;;5071630;28;20039;-70
2021/04/18 01:54:57;;;;;;;5.53;2.90;;;6.60;71.40;;;;;;5071498;28;20483;-70
2021/04/18 01:57:22;;;;;;;13.23;4.90;;;6.60;71.40;;;;;;5071690;28;20024;-70
2021/04/18 01:59:48;;;;;;;7.25;3.90;;;6.50;71.40;;;;;;5071684;28;20044;-70
2021/04/18 02:02:14;;;;;;;4.70;2.88;;;6.50;71.40;;;;;;5071602;28;20087;-70
2021/04/18 02:04:41;;;;;;;4.05;2.70;;;6.50;71.30;;;;;;5072893;28;20096;-69
2021/04/18 02:07:07;;;;;;;7.57;2.55;;;6.50;71.30;;;;;;5072717;28;20039;-70
2021/04/18 02:09:35;;;;;;;4.93;2.60;;;6.50;71.30;;;;;;5072665;28;20029;-69
2021/04/18 02:12:05;;;;;;;4.88;2.50;;;6.40;71.30;;;;;;5072426;28;20040;-70
2021/04/18 02:14:31;;;;;;;7.50;3.17;;;6.40;71.30;;;;;;5071247;28;20111;-69
2021/04/18 02:16:56;;;;;;;6.72;3.03;;;6.40;71.30;;;;;;5071324;28;20056;-70
2021/04/18 02:19:22;;;;;;;8.45;3.42;;;6.40;71.50;;;;;;5071292;28;20024;-70
2021/04/18 02:21:48;;;;;;;8.07;3.50;;;6.40;71.60;;;;;;5073079;28;20474;-70
2021/04/18 02:24:14;;;;;;;7.55;3.00;;;6.30;71.80;;;;;;5071323;28;20396;-71
2021/04/18 02:26:40;;;;;;;8.32;3.28;;;6.20;72.00;;;;;;5072487;28;20099;-70
2021/04/18 02:29:06;;;;;;;7.00;3.50;;;6.20;72.20;;;;;;5072871;28;20432;-70
2021/04/18 02:31:32;;;;;;;9.80;3.88;;;6.00;72.50;;;;;;5072505;28;20150;-69
2021/04/18 02:33:58;;;;;;;5.80;2.92;;;5.90;72.70;;;;;;5072688;28;20052;-69
2021/04/18 02:36:23;;;;;;;7.80;3.30;;;5.80;73.00;;;;;;5071270;28;20037;-70
2021/04/18 02:38:49;;;;;;;7.43;3.22;;;5.80;73.30;;;;;;5072690;28;20044;-70
2021/04/18 02:41:15;;;;;;;7.10;3.20;;;5.70;73.50;;;;;;5071105;28;20078;-70
2021/04/18 02:43:41;;;;;;;7.95;3.15;;;5.60;73.60;;;;;;5071007;28;20025;-69
2021/04/18 02:46:07;;;;;;;6.28;3.10;;;5.60;73.80;;;;;;5071026;28;20040;-70
2021/04/18 02:48:33;;;;;;;8.80;3.70;;;5.60;73.90;;;;;;5070958;28;20090;-70
2021/04/18 02:50:59;;;;;;;7.75;3.67;;;5.60;74.10;;;;;;5070890;28;20032;-70
2021/04/18 02:53:24;;;;;;;6.25;3.55;;;5.50;74.20;;;;;;5070689;28;20021;-70
2021/04/18 02:55:50;;;;;;;11.50;3.83;;;5.50;74.90;;;;;;5070687;28;20029;-69
2021/04/18 02:58:16;;;;;;;6.63;3.40;;;5.50;74.50;;;;;;5071136;28;20044;-72
2021/04/18 03:00:41;;;;;;;9.02;3.63;;;5.50;74.70;;;;;;5070944;28;20468;-70
2021/04/18 03:03:07;;;;;;;9.63;3.75;;;5.50;75.00;;;;;;5070911;28;20035;-70
2021/04/18 03:05:33;;;;;;;7.22;3.13;;;5.50;75.10;;;;;;5071005;28;20032;-70
2021/04/18 03:07:58;;;;;;;12.07;4.28;;;5.40;75.20;;;;;;5070804;28;20093;-70
2021/04/18 03:10:24;;;;;;;8.32;4.43;;;5.40;75.30;;;;;;5072372;28;20100;-69
2021/04/18 03:12:50;;;;;;;9.25;3.90;;;5.40;75.60;;;;;;5072500;28;20025;-69
2021/04/18 03:15:16;;;;;;;11.85;4.00;;;5.40;75.60;;;;;;5072627;28;20047;-70
2021/04/18 03:17:43;;;;;;;7.28;3.88;;;5.30;75.80;;;;;;5070961;28;20032;-69
2021/04/18 03:20:09;;;;;;;8.60;3.42;;;5.30;75.90;;;;;;5071136;28;20091;-70
2021/04/18 03:22:35;;;;;;;9.23;3.88;;;5.20;76.00;;;;;;5072445;28;20369;-69
2021/04/18 03:25:04;;;;;;;7.70;3.80;;;5.20;76.20;;;;;;5074811;28;20025;-70
2021/04/18 03:27:30;;;;;;;6.53;3.92;;;5.20;76.40;;;;;;5074532;28;20017;-70
2021/04/18 03:29:55;;;;;;;7.15;3.60;;;5.20;76.40;;;;;;5074556;28;20090;-69
2021/04/18 03:32:21;;;;;;;9.95;4.07;;;5.20;76.60;;;;;;5076316;28;20044;-70
2021/04/18 03:34:47;;;;;;;11.48;5.25;;;5.10;76.60;;;;;;5074432;28;20120;-70
2021/04/18 03:37:13;;;;;;;7.97;4.40;;;5.20;76.90;;;;;;5074188;28;20128;-69
2021/04/18 03:39:40;;;;;;;8.57;4.47;;;5.10;77.10;;;;;;5074831;28;20507;-69
2021/04/18 03:42:06;;;;;;;8.10;4.00;;;5.20;77.20;;;;;;5076250;28;20036;-70
2021/04/18 03:44:32;;;;;;;11.18;4.43;;;5.20;77.40;;;;;;5074259;28;20074;-70
2021/04/18 03:46:58;;;;;;;10.65;4.43;;;5.20;77.90;;;;;;5074190;28;20430;-69
2021/04/18 03:49:23;;;;;;;10.13;4.80;;;5.10;78.10;;;;;;5074212;28;20024;-70
2021/04/18 03:51:49;;;;;;;8.07;4.70;;;5.10;78.20;;;;;;5075307;28;20017;-69
2021/04/18 03:54:15;;;;;;;13.52;5.10;;;5.10;78.20;;;;;;5075374;28;20021;-69
2021/04/18 03:56:41;;;;;;;8.95;4.35;;;5.00;78.40;;;;;;5073907;28;20013;-70
2021/04/18 03:59:07;;;;;;;10.85;5.22;;;5.00;78.70;;;;;;5075184;28;20031;-69
2021/04/18 04:01:32;;;;;;;12.15;4.57;;;5.00;78.90;;;;;;5075136;28;20074;-69
2021/04/18 04:03:58;;;;;;;8.43;4.57;;;5.00;78.90;;;;;;5073695;28;20044;-69
2021/04/18 04:06:24;;;;;;;7.88;3.97;;;5.00;79.00;;;;;;5075463;28;20027;-69
2021/04/18 04:08:49;;;;;;;8.63;4.10;;;5.00;78.90;;;;;;5074928;28;20403;-69
2021/04/18 04:11:17;;;;;;;7.90;4.65;;;5.00;79.10;;;;;;5073578;28;20021;-69
2021/04/18 04:13:43;;;;;;;8.70;3.90;;;5.00;79.20;;;;;;5074125;28;20017;-70
2021/04/18 04:16:09;;;;;;;6.72;3.65;;;5.00;79.20;;;;;;5073666;28;20375;-69
2021/04/18 04:18:35;;;;;;;8.63;4.10;;;5.00;79.10;;;;;;5074909;28;20100;-70
2021/04/18 04:21:00;;;;;;;6.28;3.70;;;5.00;79.10;;;;;;5074780;28;20052;-69
2021/04/18 04:23:26;;;;;;;6.88;3.42;;;5.00;79.10;;;;;;5073361;28;20078;-73
2021/04/18 04:25:51;;;;;;;5.15;3.03;;;4.90;79.10;;;;;;5074614;28;20070;-73
2021/04/18 04:28:17;;;;;;;4.55;2.97;;;4.90;79.10;;;;;;5074919;28;20507;-73
2021/04/18 04:30:43;;;;;;;5.38;3.20;;;4.90;79.10;;;;;;5074382;28;20024;-73
2021/04/18 04:33:08;;;;;;;4.60;2.63;;;4.90;79.00;;;;;;5074437;28;20025;-73
2021/04/18 04:35:34;;;;;;;3.88;2.55;;;4.80;79.00;;;;;;5073223;28;20555;-73
2021/04/18 04:38:00;;;;;;;3.38;2.70;;;4.70;79.10;;;;;;5073094;28;20404;-73
2021/04/18 04:40:26;;;;;;;4.22;2.30;;;4.70;79.10;;;;;;5074217;28;20027;-73
2021/04/18 04:42:52;;;;;;;5.63;2.70;;;4.70;79.00;;;;;;5072695;28;20020;-73
2021/04/18 04:45:18;;;;;;;3.50;2.55;;;4.70;79.10;;;;;;5072969;28;20093;-73
2021/04/18 04:47:43;;;;;;;2.80;2.40;;;4.60;79.00;;;;;;5073912;28;20063;-73
2021/04/18 04:50:10;;;;;;;3.50;2.50;;;4.60;79.00;;;;;;5074036;28;20036;-73
2021/04/18 04:52:36;;;;;;;4.40;2.35;;;4.60;79.00;;;;;;5072765;28;20094;-73
2021/04/18 04:55:02;;;;;;;3.95;2.50;;;4.60;79.10;;;;;;5073997;28;20071;-73
2021/04/18 04:57:28;;;;;;;3.15;2.42;;;4.60;79.10;;;;;;5073925;28;20020;-73
2021/04/18 04:59:53;;;;;;;5.65;2.65;;;4.70;79.10;;;;;;5072631;28;20127;-73
2021/04/18 05:02:19;;;;;;;4.85;2.60;;;4.80;79.00;;;;;;5072415;28;20033;-73
2021/04/18 05:04:44;;;;;;;4.82;3.20;;;4.90;78.90;;;;;;5072385;28;20016;-73
2021/04/18 05:07:10;;;;;;;5.75;3.10;;;5.00;78.70;;;;;;5073809;28;20487;-73
2021/04/18 05:09:36;;;;;;;5.40;3.25;;;5.10;78.60;;;;;;5073906;28;20024;-74
2021/04/18 05:12:04;;;;;;;5.95;3.40;;;5.20;78.50;;;;;;5073516;28;20039;-74
2021/04/18 05:14:29;;;;;;;5.15;3.38;;;5.30;78.50;;;;;;5072050;28;20021;-73
2021/04/18 05:16:55;;;;;;;5.13;3.13;;;5.30;78.30;;;;;;5072199;28;20360;-73
2021/04/18 05:19:21;;;;;;;6.82;3.65;;;5.40;78.20;;;;;;5072112;28;20032;-74
2021/04/18 05:21:46;;;;;;;5.07;3.50;;;5.40;78.10;;;;;;5073693;28;20032;-73
2021/04/18 05:24:12;;;;;;;8.85;3.38;;;5.50;78.00;;;;;;5073988;28;20081;-73
2021/04/18 05:26:38;;;;;;;5.15;3.47;;;5.50;77.80;;;;;;5073909;28;20089;-74
2021/04/18 05:29:03;;;;;;;8.63;3.75;;;5.60;77.80;;;;;;5071872;28;20060;-74
2021/04/18 05:31:29;;;;;;;6.00;3.47;;;5.70;77.70;;;;;;5071700;28;20028;-73
2021/04/18 05:33:54;;;;;;;7.10;3.50;;;5.70;77.70;;;;;;5071748;28;20456;-73
2021/04/18 05:36:21;;;;;;;6.13;3.17;;;5.80;77.60;;;;;;5072912;28;20052;-73
2021/04/18 05:38:46;;;;;;;4.78;2.80;;;5.80;77.40;;;;;;5073444;28;20020;-73
2021/04/18 05:41:12;;;;;;;9.75;5.65;;;5.80;77.20;;;;;;5071685;28;20392;-73
2021/04/18 05:43:38;;;;;;;13.45;7.00;;;5.90;77.70;;;;;;5073009;28;20051;-74
2021/04/18 05:46:03;;;;;;;14.63;8.43;;;5.90;77.00;;;;;;5072910;28;20061;-73
2021/04/18 05:48:29;;;;;;;11.55;6.55;;;6.00;76.80;;;;;;5072497;28;20075;-73
2021/04/18 05:50:55;;;;;;;6.55;4.63;;;6.00;76.70;;;;;;5072774;28;20031;-73
2021/04/18 05:53:20;;;;;;;6.00;3.83;;;6.10;76.60;;;;;;5072894;28;20021;-74
2021/04/18 05:55:46;;;;;;;5.38;3.25;;;6.10;76.40;;;;;;5072888;28;20016;-73
2021/04/18 05:58:12;;;;;;;4.68;2.60;;;6.20;76.40;;;;;;5071547;28;20017;-74
2021/04/18 06:00:39;;;;;;;4.00;2.88;;;6.20;76.20;;;;;;5071317;28;20028;-73
2021/04/18 06:03:04;;;;;;;5.32;2.88;;;6.30;76.10;;;;;;5071251;28;20448;-73
2021/04/18 06:05:30;;;;;;;5.07;2.85;;;6.30;75.90;;;;;;5072831;28;20078;-73
2021/04/18 06:07:56;;;;;;;5.53;3.08;;;6.40;75.90;;;;;;5072531;28;20047;-74
2021/04/18 06:10:21;;;;;;;5.55;3.20;;;6.40;75.70;;;;;;5072668;28;20036;-74
2021/04/18 06:12:47;;;;;;;9.07;3.75;;;6.50;75.70;;;;;;5072548;28;20071;-73
2021/04/18 06:15:13;;;;;;;7.28;3.80;;;6.60;75.70;;;;;;5071498;28;20202;-74
2021/04/18 06:17:39;;;;;;;9.02;3.67;;;6.70;75.70;;;;;;5072720;28;20115;-74
2021/04/18 06:20:06;;;;;;;8.75;3.72;;;6.80;75.70;;;;;;5072595;28;20111;-73
2021/04/18 06:22:33;;;;;;;8.38;4.20;;;6.90;75.60;;;;;;5072535;28;20103;-73
2021/04/18 06:24:58;;;;;;;9.27;3.88;;;7.00;75.50;;;;;;5072492;28;20116;-74
2021/04/18 06:27:24;;;;;;;9.23;3.80;;;7.10;75.40;;;;;;5072825;28;20048;-73
2021/04/18 06:29:50;;;;;;;6.95;3.45;;;7.10;75.10;;;;;;5072453;28;20033;-73
2021/04/18 06:32:16;;;;;;;9.38;4.00;;;7.20;75.00;;;;;;5072795;28;20056;-73
2021/04/18 06:34:41;;;;;;;5.15;3.50;;;7.30;74.90;;;;;;5072803;28;20020;-73
2021/04/18 06:37:07;;;;;;;8.38;3.63;;;7.40;74.70;;;;;;5070947;28;20044;-73
2021/04/18 06:39:36;;;;;;;7.45;3.55;;;7.40;74.50;;;;;;5072738;28;20361;-73
2021/04/18 06:42:05;;;;;;;8.30;3.38;;;7.50;74.40;;;;;;5071042;28;20033;-73
2021/04/18 06:44:32;;;;;;;8.82;3.70;;;7.60;74.30;;;;;;5072265;28;20488;-73
2021/04/18 06:46:59;;;;;;;10.55;4.35;;;7.70;74.20;;;;;;5072220;28;20037;-73
2021/04/18 06:49:28;;;;;;;7.88;3.30;;;7.70;74.00;;;;;;5072724;28;20494;-74
2021/04/18 06:51:56;;;;;;;8.98;3.50;;;7.80;73.90;;;;;;5072177;28;20357;-74
2021/04/18 06:54:21;;;;;;;7.43;3.20;;;7.90;73.70;;;;;;5072296;28;20025;-73
2021/04/18 06:56:47;;;;;;;7.07;3.45;;;8.00;73.30;;;;;;5070891;28;20032;-73
2021/04/18 06:59:13;;;;;;;5.72;3.20;;;8.20;73.00;;;;;;5072067;28;20021;-74
2021/04/18 07:01:39;;;;;;;6.38;3.28;;;8.30;72.60;;;;;;5076406;28;20028;-74
2021/04/18 07:04:08;;;;;;;12.95;4.13;;;8.40;72.30;;;;;;5076329;28;20025;-73
2021/04/18 07:06:39;;;;;;;6.22;3.42;;;8.50;72.10;;;;;;5074931;28;20111;-73
2021/04/18 07:09:05;;;;;;;7.47;3.85;;;8.60;72.00;;;;;;5074769;28;20024;-74
2021/04/18 07:11:43;;;;;;;6.35;3.92;;;8.70;71.90;;;;;;5075835;28;20076;-74
2021/04/18 07:14:30;;;;;;;7.15;3.67;;;8.80;71.80;;;;;;5074482;28;20055;-74
2021/04/18 07:17:06;;;;;;;6.28;3.70;;;8.90;71.70;;;;;;5075830;28;20048;-74
2021/04/18 07:19:33;;;;;;;7.22;3.25;;;9.00;71.40;;;;;;5075885;28;20020;-73
2021/04/18 07:22:00;;;;;;;4.45;2.88;;;9.10;71.10;;;;;;5074362;28;20040;-73
2021/04/18 07:24:27;;;;;;;5.85;2.95;;;9.10;70.60;;;;;;5074443;28;20044;-74
2021/04/18 07:26:58;;;;;;;4.88;2.58;;;9.10;70.40;;;;;;5075737;28;20029;-73
2021/04/18 07:29:26;;;;;;;4.22;2.40;;;9.20;70.20;;;;;;5074285;28;20021;-74
2021/04/18 07:31:52;;;;;;;6.03;2.88;;;9.20;69.90;;;;;;5074224;28;20483;-74
2021/04/18 07:34:23;;;;;;;5.95;2.60;;;9.20;68.50;;;;;;5074104;28;20052;-74
2021/04/18 07:36:50;;;;;;;4.07;2.80;;;9.20;68.50;;;;;;5073981;28;20529;-74
2021/04/18 07:39:18;;;;;;;5.65;2.72;;;9.30;68.20;;;;;;5074116;28;20021;-74
2021/04/18 07:41:49;;;;;;;5.05;2.90;;;9.30;68.00;;;;;;5074402;28;20111;-74
2021/04/18 07:44:18;;;;;;;5.35;2.72;;;9.30;67.80;;;;;;5074367;28;20052;-74
2021/04/18 07:46:46;;;;;;;6.65;2.50;;;9.40;67.20;;;;;;5075520;28;20028;-73
2021/04/18 07:49:13;;;;;;;4.97;2.45;;;9.40;66.90;;;;;;5075457;28;20434;-73
2021/04/18 07:51:42;;;;;;;5.20;2.80;;;9.50;66.40;;;;;;5074257;28;20048;-74
2021/04/18 07:54:09;;;;;;;5.40;2.50;;;9.50;66.00;;;;;;5074027;28;20029;-74
2021/04/18 07:56:34;;;;;;;6.50;2.70;;;9.60;65.80;;;;;;5074037;28;20391;-75
2021/04/18 07:59:01;;;;;;;5.63;2.30;;;9.80;65.60;;;;;;5073900;28;20027;-74
2021/04/18 08:01:26;;;;;;;5.57;2.60;;;9.80;65.20;;;;;;5075199;28;20547;-74
2021/04/18 08:03:52;;;;;;;4.13;2.38;;;10.00;65.00;;;;;;5073717;28;20107;-74
2021/04/18 08:06:19;;;;;;;3.97;2.53;;;10.10;64.70;;;;;;5073644;28;20035;-74
2021/04/18 08:08:52;;;;;;;3.40;2.22;;;10.30;64.60;;;;;;5073464;28;20032;-74
2021/04/18 08:11:20;;;;;;;4.90;2.35;;;10.50;64.00;;;;;;5074531;28;20036;-74
2021/04/18 08:13:49;;;;;;;4.40;2.33;;;10.60;63.30;;;;;;5073715;28;20024;-74
2021/04/18 08:16:25;;;;;;;3.97;2.15;;;10.70;63.00;;;;;;5073718;28;20024;-74
2021/04/18 08:18:50;;;;;;;5.00;2.20;;;10.80;62.60;;;;;;5075203;28;20082;-74
2021/04/18 08:21:35;;;;;;;5.38;2.58;;;10.90;62.30;;;;;;5073329;28;20127;-74
2021/04/18 08:24:04;;;;;;;4.57;2.42;;;11.00;62.00;;;;;;5074892;28;20055;-73
2021/04/18 08:26:31;;;;;;;6.13;2.35;;;11.10;62.00;;;;;;5073162;28;20403;-74
2021/04/18 08:29:03;;;;;;;5.53;2.30;;;11.10;61.60;;;;;;5073218;28;20024;-74
2021/04/18 08:31:32;;;;;;;4.28;2.10;;;11.20;61.40;;;;;;5074793;28;20020;-75
2021/04/18 08:34:04;;;;;;;3.92;2.05;;;11.20;61.60;;;;;;5074459;28;20163;-74
2021/04/18 08:36:32;;;;;;;3.10;1.98;;;11.20;61.60;;;;;;5072917;28;20033;-74
2021/04/18 08:39:00;;;;;;;4.28;2.38;;;11.30;61.60;;;;;;5073179;28;20035;-74
2021/04/18 08:41:42;;;;;;;6.32;2.25;;;11.30;61.40;;;;;;5073262;28;20036;-74
2021/04/18 08:44:29;;;;;;;3.55;2.13;;;11.30;61.30;;;;;;5073073;28;20487;-74
2021/04/18 08:46:59;;;;;;;3.65;2.20;;;11.30;61.20;;;;;;5072951;28;20036;-74
2021/04/18 08:49:38;;;;;;;4.22;2.20;;;11.40;60.80;;;;;;5074312;28;20035;-73
2021/04/18 08:52:12;;;;;;;3.50;2.17;;;11.40;60.70;;;;;;5072993;28;20040;-75
2021/04/18 08:54:44;;;;;;;4.30;2.00;;;11.30;60.30;;;;;;5073048;28;20031;-74
2021/04/18 08:57:16;;;;;;;3.20;2.10;;;11.30;60.60;;;;;;5074544;28;20059;-74
2021/04/18 08:59:46;;;;;;;3.38;2.03;;;11.30;60.40;;;;;;5074802;28;20028;-75
2021/04/18 09:02:15;;;;;;;4.30;2.05;;;11.30;60.30;;;;;;5074049;28;20037;-75
2021/04/18 09:04:46;;;;;;;3.42;1.95;;;11.40;60.30;;;;;;5073014;28;20031;-75
2021/04/18 09:07:15;;;;;;;3.53;1.90;;;11.40;59.80;;;;;;5074056;28;20115;-73
2021/04/18 09:09:41;;;;;;;3.40;2.08;;;11.50;59.90;;;;;;5072642;28;20369;-74
2021/04/18 09:12:08;;;;;;;3.97;2.08;;;11.60;59.10;;;;;;5072858;28;20035;-74
2021/04/18 09:14:36;;;;;;;2.58;1.60;;;11.70;59.10;;;;;;5075175;28;20387;-76
2021/04/18 09:17:16;;;;;;;3.70;1.90;;;11.70;59.00;;;;;;5093586;28;20157;-75
2021/04/18 09:19:46;;;;;;;3.60;2.40;;;11.80;58.80;;;;;;5093297;28;20055;-74
2021/04/18 09:22:12;;;;;;;3.88;2.03;;;11.90;58.60;;;;;;5092722;28;20043;-74
2021/04/18 09:24:54;;;;;;;3.25;2.00;;;12.00;58.30;;;;;;5091895;28;20034;-74
2021/04/18 09:27:31;;;;;;;4.93;1.92;;;12.10;58.20;;;;;;5092168;28;20035;-74
2021/04/18 09:30:08;;;;;;;4.47;1.92;;;12.20;57.90;;;;;;5091930;28;20510;-74
2021/04/18 09:32:39;;;;;;;4.22;1.92;;;12.30;57.50;;;;;;5075038;28;20143;-75
2021/04/18 09:35:07;;;;;;;3.08;1.80;;;12.30;57.40;;;;;;5091503;28;20024;-74
2021/04/18 09:37:35;;;;;;;3.05;1.77;;;12.40;57.40;;;;;;5091342;28;20044;-75
2021/04/18 09:40:12;;;;;;;4.70;1.67;;;12.50;57.30;;;;;;5092079;28;20115;-74
2021/04/18 09:42:42;;;;;;;2.35;1.70;;;12.60;57.20;;;;;;5091686;28;20031;-74
2021/04/18 09:45:17;;;;;;;3.00;1.90;;;12.80;57.00;;;;;;5091450;28;20028;-75
2021/04/18 09:48:10;;;;;;;3.45;2.00;;;12.90;56.60;;;;;;5084266;28;20043;-74
2021/04/18 09:50:36;;;;;;;5.72;1.80;;;13.00;56.00;;;;;;5071932;28;20033;-73
2021/04/18 09:53:14;;;;;;;3.80;2.15;;;13.10;55.70;;;;;;5073102;28;20037;-75
2021/04/18 09:55:58;;;;;;;4.28;1.77;;;13.20;55.30;;;;;;5071876;28;20033;-75
2021/04/18 09:58:32;;;;;;;3.85;1.90;;;13.30;54.60;;;;;;5072994;28;20390;-75
2021/04/18 10:00:59;;;;;;;3.50;1.88;;;13.40;54.60;;;;;;5073082;28;20032;-74
2021/04/18 10:03:43;;;;;;;4.85;2.15;;;13.60;54.30;;;;;;5071728;28;20032;-74
2021/04/18 10:06:09;;;;;;;;;;;13.70;54.10;;;;;;5072438;28;20031;-76
2021/04/18 10:08:37;;;;;;;4.22;2.42;;;13.80;53.20;;;;;;5071743;28;19908;-75
2021/04/18 10:11:05;;;;;;;4.40;2.70;;;13.80;53.00;;;;;;5072915;28;20032;-74
2021/04/18 10:13:39;;;;;;;4.20;2.45;;;13.90;52.50;;;;;;5071634;28;20047;-75
2021/04/18 10:16:06;;;;;;;5.15;2.72;;;14.00;52.50;;;;;;5073294;28;20353;-75
2021/04/18 10:18:33;;;;;;;4.75;2.60;;;14.00;52.50;;;;;;5073319;28;20053;-75
2021/04/18 10:21:34;;;;;;;5.32;2.78;;;14.10;52.40;;;;;;5072172;28;20071;-74
2021/04/18 10:24:02;;;;;;;5.53;2.60;;;14.20;51.70;;;;;;5070405;28;20036;-74
2021/04/18 10:26:29;;;;;;;3.47;2.60;;;14.30;51.90;;;;;;5070682;28;20158;-75
2021/04/18 10:28:55;;;;;;;4.78;3.13;;;14.30;52.00;;;;;;5070734;28;20464;-74
2021/04/18 10:31:23;;;;;;;10.10;2.90;;;14.40;51.70;;;;;;5070777;28;20040;-76
2021/04/18 10:33:49;;;;;;;7.10;2.90;;;14.40;51.80;;;;;;5074400;28;20466;-75
2021/04/18 10:36:16;;;;;;;5.03;2.97;;;14.40;52.10;;;;;;5077654;28;20039;-74
2021/04/18 10:38:43;;;;;;;4.43;2.85;;;14.50;51.60;;;;;;5060329;28;20400;-76
2021/04/18 10:41:09;;;;;;;4.47;2.70;;;14.60;51.70;;;;;;5060534;28;20033;-74
2021/04/18 10:43:36;;;;;;;4.60;2.80;;;14.60;51.80;;;;;;5060504;28;20124;-74
2021/04/18 10:46:02;;;;;;;4.45;2.72;;;14.60;51.90;;;;;;5077077;28;20094;-74
2021/04/18 10:48:28;;;;;;;6.25;2.90;;;14.70;51.80;;;;;;5060267;28;20051;-75
2021/04/18 10:50:54;;;;;;;3.88;2.63;;;14.60;51.80;;;;;;5060113;28;20523;-76
2021/04/18 10:53:20;;;;;;;3.70;2.47;;;14.60;51.90;;;;;;5076905;28;20037;-74
2021/04/18 10:55:46;;;;;;;4.40;2.50;;;14.60;52.10;;;;;;5060101;28;20028;-74
2021/04/18 10:58:14;;;;;;;5.28;2.90;;;14.60;52.20;;;;;;5069682;28;20064;-74
2021/04/18 11:00:40;;;;;;;5.85;3.15;;;14.60;52.10;;;;;;5079227;28;20387;-75
2021/04/18 11:03:05;;;;;;;5.63;3.15;;;14.60;52.00;;;;;;5077934;28;20027;-74
2021/04/18 11:05:31;;;;;;;4.40;3.08;;;14.70;52.20;;;;;;5077752;28;20043;-75
2021/04/18 11:07:57;;;;;;;6.43;3.88;;;14.70;52.20;;;;;;5078960;28;20384;-75
2021/04/18 11:10:25;;;;;;;5.93;3.58;;;14.80;52.20;;;;;;5079185;28;20499;-74
2021/04/18 11:12:50;;;;;;;9.95;4.45;;;14.90;52.20;;;;;;5077616;28;20033;-75
2021/04/18 11:15:16;;;;;;;9.15;4.20;;;15.10;52.10;;;;;;5079663;28;20107;-74
2021/04/18 11:17:41;;;;;;;7.75;3.88;;;15.10;51.90;;;;;;5079604;28;20056;-74
2021/04/18 11:20:13;;;;;;;7.07;3.60;;;15.20;51.80;;;;;;5079066;28;20028;-75
2021/04/18 11:22:39;;;;;;;5.85;3.45;;;15.20;51.80;;;;;;5077707;28;20040;-74
2021/04/18 11:25:13;;;;;;;6.00;3.15;;;15.30;51.90;;;;;;5077908;28;20106;-75
2021/04/18 11:27:39;;;;;;;4.78;2.97;;;15.40;51.90;;;;;;5077688;28;20032;-76
2021/04/18 11:30:11;;;;;;;7.40;3.28;;;15.40;51.90;;;;;;5079074;28;20082;-74
2021/04/18 11:32:37;;;;;;;4.72;3.25;;;15.50;51.80;;;;;;5079066;28;20036;-74
2021/04/18 11:38:25;;;;;;;5.30;3.30;;;15.60;51.70;;;;;;5078839;28;20074;-75
2021/04/18 11:40:51;;;;;;;5.97;3.50;;;15.80;51.50;;;;;;5077512;28;20028;-75
2021/04/18 11:43:16;;;;;;;4.85;3.30;;;15.90;51.40;;;;;;5078820;28;20462;-74
2021/04/18 11:45:42;;;;;;;5.90;3.47;;;16.00;51.10;;;;;;5074658;28;20411;-74
2021/04/18 11:48:09;;;;;;;15.85;6.05;;;16.10;51.20;;;;;;5074485;28;20071;-75
2021/04/18 11:50:35;;;;;;;11.65;6.32;;;16.20;50.70;;;;;;5075655;28;20029;-74
2021/04/18 11:53:00;;;;;;;8.15;4.38;;;16.10;50.60;;;;;;5072887;28;20036;-75
2021/04/18 11:55:26;;;;;;;7.07;3.90;;;16.20;50.70;;;;;;5075363;28;20036;-75
2021/04/18 11:57:52;;;;;;;6.00;3.20;;;16.30;50.50;;;;;;5075414;28;20028;-78
2021/04/18 12:00:19;;;;;;;8.38;3.22;;;16.30;50.40;;;;;;5075327;28;20468;-74
2021/04/18 12:02:44;;;;;;;5.90;3.30;;;16.40;50.30;;;;;;5073974;28;20024;-75
2021/04/18 12:05:11;;;;;;;5.03;3.00;;;16.50;50.00;;;;;;5075156;28;20054;-75
2021/04/18 12:07:37;;;;;;;4.82;3.15;;;16.60;49.80;;;;;;5075132;28;20467;-73
2021/04/18 12:10:05;;;;;;;4.45;3.45;;;16.70;49.70;;;;;;5073750;28;20081;-73
2021/04/18 12:12:31;;;;;;;4.10;3.05;;;16.70;48.90;;;;;;5073880;28;20040;-74
2021/04/18 12:14:56;;;;;;;6.35;3.40;;;16.80;49.20;;;;;;5073766;28;20025;-75
2021/04/18 12:17:22;;;;;;;4.18;2.80;;;16.80;49.20;;;;;;5075030;28;20080;-75
2021/04/18 12:19:48;;;;;;;4.90;2.50;;;16.90;49.00;;;;;;5074995;28;20029;-74
2021/04/18 12:22:13;;;;;;;5.25;2.97;;;17.00;49.10;;;;;;5075537;28;20028;-74
2021/04/18 12:24:39;;;;;;;5.75;3.30;;;17.10;48.90;;;;;;5074791;28;20510;-74
2021/04/18 12:27:05;;;;;;;4.50;3.45;;;17.20;48.90;;;;;;5074900;28;20089;-74
2021/04/18 12:29:32;;;;;;;5.72;3.38;;;17.20;48.20;;;;;;5073407;28;20044;-75
2021/04/18 12:31:58;;;;;;;6.82;3.55;;;17.20;48.10;;;;;;5074749;28;20070;-74
2021/04/18 12:34:24;;;;;;;5.68;4.25;;;17.20;47.60;;;;;;5074881;28;20387;-74
2021/04/18 12:36:50;;;;;;;7.60;3.90;;;17.10;47.60;;;;;;5072963;28;20068;-74
2021/04/18 12:39:16;;;;;;;5.18;2.70;;;17.10;47.80;;;;;;5073269;28;20050;-74
2021/04/18 12:41:42;;;;;;;3.50;2.47;;;17.20;47.80;;;;;;5074736;28;20032;-73
2021/04/18 12:44:07;;;;;;;4.50;3.13;;;17.30;47.40;;;;;;5074790;28;20108;-74
2021/04/18 12:46:33;;;;;;;7.18;3.10;;;17.30;46.60;;;;;;5073208;28;20058;-74
2021/04/18 12:48:59;;;;;;;4.72;2.60;;;17.40;46.50;;;;;;5073041;28;20028;-75
2021/04/18 12:51:27;;;;;;;4.28;2.65;;;17.40;46.70;;;;;;5073190;28;20389;-74
2021/04/18 12:53:53;;;;;;;4.70;2.40;;;17.40;46.60;;;;;;5074360;28;20031;-73
2021/04/18 12:56:18;;;;;;;6.78;2.65;;;17.50;46.70;;;;;;5073495;28;20056;-74
2021/04/18 12:58:44;;;;;;;3.78;2.53;;;17.50;46.60;;;;;;5073705;28;20032;-74